LESO/EAS METAR and TAF weather

Enter ICAO airport designator
Station Type Date Time Source
LESO METAR 2022/12/10 03:00 UTC NOAA

LESO 100300Z AUTO 03007KT 340V060 9999 BKN024 07/03 Q1011


Station Type Date Time Source
LESO Decoded METAR 2022/12/10 03:00 UTC NOAA

San Sebastian / Fuenterrabia, Spain (LESO) 43-21N 001-48W 8M
Dec 09, 2022 - 10:00 PM EST / 2022.12.10 0300 UTC
Wind: from the NNE (030 degrees) at 8 MPH (7 KT) (direction variable):0
Visibility: greater than 7 mile(s):0
Sky conditions: mostly cloudy
Temperature: 44 F (7 C)
Dew Point: 37 F (3 C)
Relative Humidity: 75%
Pressure (altimeter): 29.85 in. Hg (1011 hPa)
ob: LESO 100300Z AUTO 03007KT 340V060 9999 BKN024 07/03 Q1011
cycle: 3

Station Type Date Time Source
LESO TAF 2022/12/09 18:27 UTC NOAA

TAF LESO 091700Z 0918/1018 02009KT 9999 SCT010 BKN015 TX11/0918Z TN06/1008Z
TEMPO 0918/1002 3000 RADZ BKN008 PROB30
TEMPO 0918/1002 1500 RADZ BR BKN004 OVC010

Example: see airport list